createdAt,value
2017-03-10T00:00:12.073Z,924.1
2017-03-10T00:00:31.204Z,924.11
2017-03-10T00:00:50.343Z,924.13
2017-03-10T00:01:10.081Z,924.1
2017-03-10T00:01:29.855Z,924.12
2017-03-10T00:01:49.626Z,924.1
2017-03-10T00:02:09.384Z,924.13
2017-03-10T00:02:29.117Z,924.12
2017-03-10T00:02:48.877Z,924.11
2017-03-10T00:03:08.676Z,924.12
2017-03-10T00:03:27.823Z,924.11
2017-03-10T00:03:47.594Z,924.12
2017-03-10T00:04:07.345Z,924.14
2017-03-10T00:04:27.056Z,924.13
2017-03-10T00:04:45.639Z,924.13
2017-03-10T00:05:05.408Z,924.15
2017-03-10T00:05:25.142Z,924.17
2017-03-10T00:05:44.918Z,924.19
2017-03-10T00:06:04.669Z,924.21
2017-03-10T00:06:24.404Z,924.21
2017-03-10T00:06:44.170Z,924.2
2017-03-10T00:07:03.945Z,924.26
2017-03-10T00:07:23.705Z,924.23
2017-03-10T00:07:42.265Z,924.22
2017-03-10T00:08:02.015Z,924.25
2017-03-10T00:08:20.577Z,924.3
2017-03-10T00:08:40.379Z,924.3
2017-03-10T00:09:00.162Z,924.24
2017-03-10T00:09:19.924Z,924.25
2017-03-10T00:09:39.682Z,924.27
2017-03-10T00:09:58.856Z,924.3
2017-03-10T00:10:18.588Z,924.31
2017-03-10T00:10:38.336Z,924.3
2017-03-10T00:10:58.100Z,924.33
2017-03-10T00:11:17.848Z,924.36
2017-03-10T00:11:37.598Z,924.31
2017-03-10T00:11:56.752Z,924.33
2017-03-10T00:12:16.493Z,924.34
2017-03-10T00:12:35.787Z,924.32
2017-03-10T00:12:54.906Z,924.34
2017-03-10T00:13:14.058Z,924.32
2017-03-10T00:13:33.822Z,924.32
2017-03-10T00:13:53.531Z,924.32
2017-03-10T00:14:13.274Z,924.31
2017-03-10T00:14:33.026Z,924.32
2017-03-10T00:14:52.800Z,924.33
2017-03-10T00:15:12.561Z,924.33
2017-03-10T00:15:31.700Z,924.33
2017-03-10T00:15:51.473Z,924.3
2017-03-10T00:16:11.239Z,924.35
2017-03-10T00:16:30.997Z,924.33
2017-03-10T00:16:50.758Z,924.34
2017-03-10T00:17:10.516Z,924.36
2017-03-10T00:17:30.274Z,924.36
2017-03-10T00:17:50.033Z,924.35
2017-03-10T00:18:09.755Z,924.36
2017-03-10T00:18:29.511Z,924.38
2017-03-10T00:18:49.289Z,924.36
2017-03-10T00:19:09.090Z,924.36
2017-03-10T00:19:28.847Z,924.39
2017-03-10T00:19:48.052Z,924.43
2017-03-10T00:20:07.814Z,924.39
2017-03-10T00:20:26.978Z,924.36
2017-03-10T00:20:46.731Z,924.38
2017-03-10T00:21:05.876Z,924.37
2017-03-10T00:21:25.634Z,924.37
2017-03-10T00:21:44.797Z,924.38
2017-03-10T00:22:04.510Z,924.38
2017-03-10T00:22:24.273Z,924.4
2017-03-10T00:22:44.217Z,924.41
2017-03-10T00:23:03.964Z,924.4
2017-03-10T00:23:23.686Z,924.4
2017-03-10T00:23:43.476Z,924.38
2017-03-10T00:24:03.226Z,924.42
2017-03-10T00:24:22.981Z,924.38
2017-03-10T00:24:42.130Z,924.39
2017-03-10T00:25:00.734Z,924.39
2017-03-10T00:25:20.481Z,924.39
2017-03-10T00:25:40.256Z,924.4
2017-03-10T00:25:59.986Z,924.37
2017-03-10T00:26:19.756Z,924.4
2017-03-10T00:26:38.311Z,924.37
2017-03-10T00:26:58.061Z,924.39
2017-03-10T00:27:17.832Z,924.4
2017-03-10T00:27:37.146Z,924.4
2017-03-10T00:27:56.916Z,924.4
2017-03-10T00:28:16.068Z,924.4
2017-03-10T00:28:35.817Z,924.37
2017-03-10T00:28:55.614Z,924.38
2017-03-10T00:29:15.379Z,924.4
2017-03-10T00:29:34.559Z,924.39
2017-03-10T00:29:54.353Z,924.36
2017-03-10T00:30:14.102Z,924.39
2017-03-10T00:30:33.855Z,924.41
2017-03-10T00:30:53.011Z,924.39
2017-03-10T00:31:12.803Z,924.38
2017-03-10T00:31:32.577Z,924.45
2017-03-10T00:31:52.350Z,924.41
2017-03-10T00:32:11.528Z,924.44
2017-03-10T00:32:31.272Z,924.4
2017-03-10T00:32:51.000Z,924.45
2017-03-10T00:33:10.772Z,924.44
2017-03-10T00:33:30.484Z,924.42
2017-03-10T00:33:50.262Z,924.47
2017-03-10T00:34:09.435Z,924.49
2017-03-10T00:34:29.197Z,924.43
2017-03-10T00:34:48.996Z,924.44
2017-03-10T00:35:08.747Z,924.45
2017-03-10T00:35:28.480Z,924.44
2017-03-10T00:35:48.234Z,924.42
2017-03-10T00:36:07.971Z,924.43
2017-03-10T00:36:27.137Z,924.42
2017-03-10T00:36:46.264Z,924.41
2017-03-10T00:37:06.000Z,924.41
2017-03-10T00:37:25.766Z,924.4
2017-03-10T00:37:46.250Z,924.39
2017-03-10T00:38:06.050Z,924.39
2017-03-10T00:38:25.225Z,924.42
2017-03-10T00:38:45.005Z,924.39
2017-03-10T00:39:04.762Z,924.37
2017-03-10T00:39:23.904Z,924.4
2017-03-10T00:39:43.658Z,924.39
2017-03-10T00:40:02.822Z,924.35
2017-03-10T00:40:22.572Z,924.38
2017-03-10T00:40:41.179Z,924.38
2017-03-10T00:41:00.938Z,924.37
2017-03-10T00:41:20.697Z,924.39
2017-03-10T00:41:40.464Z,924.34
2017-03-10T00:42:00.237Z,924.37
2017-03-10T00:42:18.810Z,924.39
2017-03-10T00:42:37.457Z,924.36
2017-03-10T00:42:57.195Z,924.38
2017-03-10T00:43:16.933Z,924.36
2017-03-10T00:43:36.107Z,924.4
2017-03-10T00:43:55.855Z,924.42
2017-03-10T00:44:15.603Z,924.4
2017-03-10T00:44:34.770Z,924.43
2017-03-10T00:44:53.912Z,924.44
2017-03-10T00:45:13.647Z,924.43
2017-03-10T00:45:33.420Z,924.48
2017-03-10T00:45:53.165Z,924.47
2017-03-10T00:46:13.069Z,924.46
2017-03-10T00:46:32.844Z,924.48
2017-03-10T00:46:52.592Z,924.46
2017-03-10T00:47:12.323Z,924.47
2017-03-10T00:47:31.461Z,924.48
2017-03-10T00:47:51.282Z,924.48
2017-03-10T00:48:11.045Z,924.48
2017-03-10T00:48:30.160Z,924.44
2017-03-10T00:48:49.920Z,924.49
2017-03-10T00:49:09.670Z,924.51
2017-03-10T00:49:29.406Z,924.52
2017-03-10T00:49:49.160Z,924.51
2017-03-10T00:50:08.908Z,924.5
2017-03-10T00:50:28.691Z,924.49
2017-03-10T00:50:47.240Z,924.52
2017-03-10T00:51:07.017Z,924.49
2017-03-10T00:51:26.781Z,924.48
2017-03-10T00:51:45.953Z,924.51
2017-03-10T00:52:05.698Z,924.49
2017-03-10T00:52:25.427Z,924.48
2017-03-10T00:52:44.797Z,924.5
2017-03-10T00:53:04.549Z,924.5
2017-03-10T00:53:23.731Z,924.48
2017-03-10T00:53:42.883Z,924.49
2017-03-10T00:54:02.657Z,924.5
2017-03-10T00:54:22.430Z,924.5
2017-03-10T00:54:41.586Z,924.48
2017-03-10T00:55:01.333Z,924.5
2017-03-10T00:55:21.292Z,924.47
2017-03-10T00:55:41.039Z,924.51
2017-03-10T00:56:00.814Z,924.55
2017-03-10T00:56:19.934Z,924.56
2017-03-10T00:56:38.489Z,924.54
2017-03-10T00:56:58.250Z,924.55
2017-03-10T00:57:18.017Z,924.56
2017-03-10T00:57:38.012Z,924.6
2017-03-10T00:57:57.756Z,924.6
2017-03-10T00:58:17.519Z,924.62
2017-03-10T00:58:36.686Z,924.6
2017-03-10T00:58:56.442Z,924.63
2017-03-10T00:59:16.199Z,924.65
2017-03-10T00:59:35.942Z,924.62
2017-03-10T00:59:55.731Z,924.65
2017-03-10T01:00:29.552Z,924.67
2017-03-10T01:00:49.348Z,924.66
2017-03-10T01:01:09.084Z,924.65
2017-03-10T01:01:28.826Z,924.68
2017-03-10T01:01:48.620Z,924.68
2017-03-10T01:02:08.359Z,924.67
2017-03-10T01:02:27.502Z,924.64
2017-03-10T01:02:47.279Z,924.7
2017-03-10T01:03:07.042Z,924.67
2017-03-10T01:03:26.756Z,924.66
2017-03-10T01:03:46.522Z,924.66
2017-03-10T01:04:06.325Z,924.66
2017-03-10T01:04:26.107Z,924.62
2017-03-10T01:04:45.327Z,924.66
2017-03-10T01:05:05.087Z,924.64
2017-03-10T01:05:24.847Z,924.67
2017-03-10T01:05:44.055Z,924.64
2017-03-10T01:06:03.782Z,924.69
2017-03-10T01:06:22.976Z,924.68
2017-03-10T01:06:42.750Z,924.67
2017-03-10T01:07:02.505Z,924.69
2017-03-10T01:07:22.304Z,924.7
2017-03-10T01:07:42.051Z,924.66
2017-03-10T01:08:01.837Z,924.68
2017-03-10T01:08:21.562Z,924.67
2017-03-10T01:08:41.341Z,924.65
2017-03-10T01:09:01.117Z,924.68
2017-03-10T01:09:20.888Z,924.65
2017-03-10T01:09:40.643Z,924.65
2017-03-10T01:10:00.403Z,924.67
2017-03-10T01:10:19.557Z,924.64
2017-03-10T01:10:39.336Z,924.63
2017-03-10T01:10:59.063Z,924.7
2017-03-10T01:11:18.866Z,924.68
2017-03-10T01:11:38.641Z,924.67
2017-03-10T01:11:58.408Z,924.64
2017-03-10T01:12:17.565Z,924.66
2017-03-10T01:12:37.571Z,924.64
2017-03-10T01:12:57.303Z,924.61
2017-03-10T01:13:17.063Z,924.64
2017-03-10T01:13:36.787Z,924.59
2017-03-10T01:13:56.566Z,924.62
2017-03-10T01:14:16.320Z,924.64
2017-03-10T01:14:36.071Z,924.66
2017-03-10T01:14:55.824Z,924.64
2017-03-10T01:15:29.473Z,924.66
2017-03-10T01:15:49.202Z,924.62
2017-03-10T01:16:09.000Z,924.62
2017-03-10T01:16:28.807Z,924.6
2017-03-10T01:16:48.581Z,924.63
2017-03-10T01:17:08.340Z,924.63
2017-03-10T01:17:28.115Z,924.6
2017-03-10T01:17:47.979Z,924.6
2017-03-10T01:18:07.718Z,924.62
2017-03-10T01:18:26.852Z,924.6
2017-03-10T01:18:46.654Z,924.61
2017-03-10T01:19:06.430Z,924.63
2017-03-10T01:19:26.173Z,924.61
2017-03-10T01:19:45.906Z,924.62
2017-03-10T01:20:05.673Z,924.62
2017-03-10T01:20:24.811Z,924.62
2017-03-10T01:20:43.982Z,924.64
2017-03-10T01:21:03.765Z,924.65
2017-03-10T01:21:23.522Z,924.7
2017-03-10T01:21:43.268Z,924.7
2017-03-10T01:22:03.017Z,924.67
2017-03-10T01:22:22.783Z,924.67
2017-03-10T01:22:42.696Z,924.66
2017-03-10T01:23:02.446Z,924.72
2017-03-10T01:23:22.207Z,924.68
2017-03-10T01:23:41.955Z,924.71
2017-03-10T01:24:01.694Z,924.72
2017-03-10T01:24:20.868Z,924.71
2017-03-10T01:24:40.613Z,924.69
2017-03-10T01:25:00.339Z,924.73
2017-03-10T01:25:19.533Z,924.75
2017-03-10T01:25:38.738Z,924.75
2017-03-10T01:25:58.499Z,924.71
2017-03-10T01:26:17.627Z,924.73
2017-03-10T01:26:36.773Z,924.73
2017-03-10T01:26:56.517Z,924.7
2017-03-10T01:27:16.243Z,924.72
2017-03-10T01:27:35.974Z,924.68
2017-03-10T01:27:55.753Z,924.71
2017-03-10T01:28:15.503Z,924.73
2017-03-10T01:28:35.262Z,924.72
2017-03-10T01:28:54.999Z,924.69
2017-03-10T01:29:14.752Z,924.69
2017-03-10T01:29:34.500Z,924.68
2017-03-10T01:29:54.325Z,924.68
2017-03-10T01:30:14.079Z,924.64
2017-03-10T01:30:33.806Z,924.63
2017-03-10T01:30:53.570Z,924.61
2017-03-10T01:31:13.357Z,924.64
2017-03-10T01:31:33.172Z,924.6
2017-03-10T01:31:52.923Z,924.62
2017-03-10T01:32:12.074Z,924.6
2017-03-10T01:32:31.825Z,924.58
2017-03-10T01:32:51.648Z,924.62
2017-03-10T01:33:11.444Z,924.59
2017-03-10T01:33:31.192Z,924.58
2017-03-10T01:33:50.946Z,924.59
2017-03-10T01:34:10.670Z,924.58
2017-03-10T01:34:29.235Z,924.59
2017-03-10T01:34:48.986Z,924.55
2017-03-10T01:35:08.908Z,924.62
2017-03-10T01:35:28.636Z,924.57
2017-03-10T01:35:48.392Z,924.58
2017-03-10T01:36:08.182Z,924.53
2017-03-10T01:36:27.407Z,924.53
2017-03-10T01:36:47.180Z,924.57
2017-03-10T01:37:06.896Z,924.54
2017-03-10T01:37:26.626Z,924.59
2017-03-10T01:37:46.473Z,924.54
2017-03-10T01:38:06.250Z,924.53
2017-03-10T01:38:26.055Z,924.53
2017-03-10T01:38:45.828Z,924.53
2017-03-10T01:39:05.598Z,924.54
2017-03-10T01:39:25.344Z,924.54
2017-03-10T01:39:44.513Z,924.56
2017-03-10T01:40:04.294Z,924.54
2017-03-10T01:40:24.163Z,924.51
2017-03-10T01:40:43.950Z,924.53
2017-03-10T01:41:03.703Z,924.52
2017-03-10T01:41:23.464Z,924.52
2017-03-10T01:41:43.258Z,924.53
2017-03-10T01:42:03.007Z,924.55
2017-03-10T01:42:21.742Z,924.53
2017-03-10T01:42:40.979Z,924.5
2017-03-10T01:43:00.888Z,924.59
2017-03-10T01:43:20.619Z,924.53
2017-03-10T01:43:40.707Z,924.55
2017-03-10T01:44:00.499Z,924.56
2017-03-10T01:44:19.800Z,924.55
2017-03-10T01:44:39.818Z,924.59
2017-03-10T01:44:59.598Z,924.61
2017-03-10T01:45:19.376Z,924.62
2017-03-10T01:45:39.131Z,924.61
2017-03-10T01:45:58.897Z,924.62
2017-03-10T01:46:18.809Z,924.61
2017-03-10T01:46:38.595Z,924.62
2017-03-10T01:46:58.318Z,924.62
2017-03-10T01:47:18.021Z,924.65
2017-03-10T01:47:37.788Z,924.67
2017-03-10T01:47:57.526Z,924.66
2017-03-10T01:48:17.408Z,924.66
2017-03-10T01:48:36.737Z,924.66
2017-03-10T01:48:56.502Z,924.7
2017-03-10T01:49:16.281Z,924.7
2017-03-10T01:49:36.019Z,924.71
2017-03-10T01:49:55.766Z,924.68
2017-03-10T01:50:15.522Z,924.66
2017-03-10T01:50:35.334Z,924.67
2017-03-10T01:50:55.108Z,924.66
2017-03-10T01:51:14.854Z,924.67
2017-03-10T01:51:34.586Z,924.69
2017-03-10T01:51:54.327Z,924.66
2017-03-10T01:52:13.468Z,924.7
2017-03-10T01:52:33.230Z,924.62
2017-03-10T01:52:52.969Z,924.65
2017-03-10T01:53:12.722Z,924.62
2017-03-10T01:53:32.479Z,924.61
2017-03-10T01:53:52.242Z,924.61
2017-03-10T01:54:12.017Z,924.61
2017-03-10T01:54:31.853Z,924.61
2017-03-10T01:54:51.605Z,924.59
2017-03-10T01:55:11.375Z,924.59
2017-03-10T01:55:31.115Z,924.56
2017-03-10T01:55:50.861Z,924.6
2017-03-10T01:56:10.609Z,924.61
2017-03-10T01:56:29.265Z,924.6
2017-03-10T01:56:49.075Z,924.58
2017-03-10T01:57:08.850Z,924.55
2017-03-10T01:57:29.203Z,924.57
2017-03-10T01:57:49.027Z,924.55
2017-03-10T01:58:08.781Z,924.57
2017-03-10T01:58:28.560Z,924.57
2017-03-10T01:58:48.324Z,924.58
2017-03-10T01:59:08.193Z,924.61
2017-03-10T01:59:27.971Z,924.58
2017-03-10T01:59:47.701Z,924.56
2017-03-10T02:00:07.430Z,924.53
2017-03-10T02:00:26.811Z,924.53
2017-03-10T02:00:46.577Z,924.56
2017-03-10T02:01:06.323Z,924.59
2017-03-10T02:01:26.065Z,924.58
2017-03-10T02:01:45.808Z,924.58
2017-03-10T02:02:05.546Z,924.56
2017-03-10T02:02:25.359Z,924.57
2017-03-10T02:02:45.116Z,924.58
2017-03-10T02:03:04.834Z,924.54
2017-03-10T02:03:24.598Z,924.52
2017-03-10T02:03:44.376Z,924.57
2017-03-10T02:04:04.149Z,924.54
2017-03-10T02:04:23.947Z,924.53
2017-03-10T02:04:43.703Z,924.5
2017-03-10T02:05:37.078Z,924.5
2017-03-10T02:05:56.839Z,924.48
2017-03-10T02:06:16.040Z,924.5
2017-03-10T02:06:35.998Z,924.48
2017-03-10T02:06:55.762Z,924.47
2017-03-10T02:07:15.511Z,924.48
2017-03-10T02:07:35.274Z,924.43
2017-03-10T02:07:55.007Z,924.46
2017-03-10T02:08:14.291Z,924.45
2017-03-10T02:08:34.457Z,924.45
2017-03-10T02:08:54.224Z,924.44
2017-03-10T02:09:13.995Z,924.45
2017-03-10T02:09:33.741Z,924.46
2017-03-10T02:09:53.477Z,924.44
2017-03-10T02:10:12.645Z,924.44
2017-03-10T02:10:32.485Z,924.46
2017-03-10T02:10:52.274Z,924.42
2017-03-10T02:11:12.040Z,924.46
2017-03-10T02:11:31.785Z,924.5
2017-03-10T02:11:51.506Z,924.5
2017-03-10T02:12:11.259Z,924.52
2017-03-10T02:12:31.014Z,924.48
2017-03-10T02:12:51.029Z,924.5
2017-03-10T02:13:10.795Z,924.51
2017-03-10T02:13:30.547Z,924.59
2017-03-10T02:13:50.318Z,924.56
2017-03-10T02:14:10.093Z,924.56
2017-03-10T02:14:29.917Z,924.56
2017-03-10T02:14:49.654Z,924.62
2017-03-10T02:15:23.502Z,924.59
2017-03-10T02:15:42.628Z,924.54
2017-03-10T02:16:02.376Z,924.56
2017-03-10T02:16:22.149Z,924.61
2017-03-10T02:16:41.914Z,924.61
2017-03-10T02:17:01.652Z,924.59
2017-03-10T02:17:21.414Z,924.55
2017-03-10T02:17:41.179Z,924.6
2017-03-10T02:18:01.035Z,924.54
2017-03-10T02:18:20.812Z,924.6
2017-03-10T02:18:40.531Z,924.57
2017-03-10T02:19:00.280Z,924.58
2017-03-10T02:19:20.047Z,924.55
2017-03-10T02:19:39.795Z,924.54
2017-03-10T02:19:58.947Z,924.54
2017-03-10T02:20:18.671Z,924.48
2017-03-10T02:20:38.421Z,924.52
2017-03-10T02:20:58.165Z,924.49
2017-03-10T02:21:17.961Z,924.55
2017-03-10T02:21:37.733Z,924.52
2017-03-10T02:21:57.475Z,924.52
2017-03-10T02:22:16.617Z,924.48
2017-03-10T02:22:36.346Z,924.48
2017-03-10T02:22:56.135Z,924.51
2017-03-10T02:23:15.955Z,924.52
2017-03-10T02:23:35.720Z,924.52
2017-03-10T02:23:55.477Z,924.52
2017-03-10T02:24:15.247Z,924.53
2017-03-10T02:24:35.008Z,924.54
2017-03-10T02:24:54.778Z,924.53
2017-03-10T02:25:14.570Z,924.53
2017-03-10T02:25:34.299Z,924.56
2017-03-10T02:25:54.079Z,924.6
2017-03-10T02:26:13.832Z,924.62
2017-03-10T02:26:33.579Z,924.61
2017-03-10T02:26:53.346Z,924.61
2017-03-10T02:27:12.553Z,924.61
2017-03-10T02:27:31.723Z,924.59
2017-03-10T02:27:51.754Z,924.56
2017-03-10T02:28:11.495Z,924.62
2017-03-10T02:28:31.289Z,924.64
2017-03-10T02:28:51.079Z,924.62
2017-03-10T02:29:10.920Z,924.59
2017-03-10T02:29:30.655Z,924.59
2017-03-10T02:29:50.388Z,924.63
2017-03-10T02:30:09.577Z,924.6
2017-03-10T02:30:29.329Z,924.61
2017-03-10T02:30:49.108Z,924.6
2017-03-10T02:31:08.850Z,924.61
2017-03-10T02:31:28.577Z,924.63
2017-03-10T02:31:47.162Z,924.6
2017-03-10T02:32:06.328Z,924.6
2017-03-10T02:32:26.106Z,924.62
2017-03-10T02:32:45.913Z,924.58
2017-03-10T02:33:05.660Z,924.58
2017-03-10T02:33:25.416Z,924.57
2017-03-10T02:33:44.561Z,924.57
2017-03-10T02:34:04.325Z,924.57
2017-03-10T02:34:24.070Z,924.59
2017-03-10T02:34:43.822Z,924.6
2017-03-10T02:35:03.615Z,924.58
2017-03-10T02:35:22.785Z,924.57
2017-03-10T02:35:42.517Z,924.51
2017-03-10T02:36:02.291Z,924.53
2017-03-10T02:36:22.089Z,924.55
2017-03-10T02:36:41.828Z,924.54
2017-03-10T02:37:01.610Z,924.52
2017-03-10T02:37:21.365Z,924.52
2017-03-10T02:37:41.112Z,924.48
2017-03-10T02:38:00.886Z,924.48
2017-03-10T02:38:20.042Z,924.5
2017-03-10T02:38:38.610Z,924.5
2017-03-10T02:38:58.340Z,924.51
2017-03-10T02:39:18.093Z,924.5
2017-03-10T02:39:37.848Z,924.5
2017-03-10T02:39:57.604Z,924.47
2017-03-10T02:40:17.403Z,924.5
2017-03-10T02:40:36.598Z,924.5
2017-03-10T02:40:56.361Z,924.49
2017-03-10T02:41:16.095Z,924.53
2017-03-10T02:41:35.847Z,924.5
2017-03-10T02:41:55.600Z,924.5
2017-03-10T02:42:15.367Z,924.53
2017-03-10T02:42:35.251Z,924.51
2017-03-10T02:42:55.251Z,924.51
2017-03-10T02:43:15.010Z,924.51
2017-03-10T02:43:34.788Z,924.51
2017-03-10T02:43:54.530Z,924.51
2017-03-10T02:44:14.322Z,924.52
2017-03-10T02:44:33.507Z,924.5
2017-03-10T02:44:53.259Z,924.51
2017-03-10T02:45:13.223Z,924.52
2017-03-10T02:45:33.005Z,924.48
2017-03-10T02:45:52.789Z,924.47
2017-03-10T02:46:12.570Z,924.47
2017-03-10T02:46:32.306Z,924.52
2017-03-10T02:46:51.457Z,924.53
2017-03-10T02:47:11.239Z,924.52
2017-03-10T02:47:31.012Z,924.5
2017-03-10T02:47:50.794Z,924.52
2017-03-10T02:48:10.578Z,924.48
2017-03-10T02:48:30.401Z,924.52
2017-03-10T02:48:50.142Z,924.49
2017-03-10T02:49:09.879Z,924.49
2017-03-10T02:49:29.625Z,924.51
2017-03-10T02:49:49.367Z,924.5
2017-03-10T02:50:08.536Z,924.52
2017-03-10T02:50:28.468Z,924.5
2017-03-10T02:50:48.248Z,924.5
2017-03-10T02:51:08.055Z,924.51
2017-03-10T02:51:27.791Z,924.52
2017-03-10T02:51:47.542Z,924.52
2017-03-10T02:52:07.320Z,924.46
2017-03-10T02:52:27.077Z,924.48
2017-03-10T02:52:46.824Z,924.53
2017-03-10T02:53:06.604Z,924.52
2017-03-10T02:53:25.747Z,924.52
2017-03-10T02:53:45.492Z,924.48
2017-03-10T02:54:05.262Z,924.52
2017-03-10T02:54:25.347Z,924.52
2017-03-10T02:54:44.654Z,924.5
2017-03-10T02:55:04.430Z,924.49
2017-03-10T02:55:23.595Z,924.5
2017-03-10T02:55:42.743Z,924.54
2017-03-10T02:56:02.512Z,924.5
2017-03-10T02:56:21.842Z,924.49
2017-03-10T02:56:40.524Z,924.51
2017-03-10T02:57:00.290Z,924.46
2017-03-10T02:57:19.448Z,924.45
2017-03-10T02:57:38.650Z,924.48
2017-03-10T02:57:58.437Z,924.4
2017-03-10T02:58:18.269Z,924.42
2017-03-10T02:58:37.467Z,924.42
2017-03-10T02:58:57.239Z,924.41
2017-03-10T02:59:17.032Z,924.4
2017-03-10T02:59:36.823Z,924.41
2017-03-10T02:59:56.582Z,924.38
2017-03-10T03:00:16.671Z,924.35
2017-03-10T03:00:36.674Z,924.34
2017-03-10T03:00:56.425Z,924.34
2017-03-10T03:01:16.184Z,924.31
2017-03-10T03:01:35.922Z,924.31
2017-03-10T03:01:55.673Z,924.26
2017-03-10T03:02:15.537Z,924.29
2017-03-10T03:02:34.921Z,924.29
2017-03-10T03:02:54.748Z,924.2
2017-03-10T03:03:14.503Z,924.26
2017-03-10T03:03:33.668Z,924.27
2017-03-10T03:03:52.823Z,924.21
2017-03-10T03:04:12.611Z,924.22
2017-03-10T03:04:32.362Z,924.23
2017-03-10T03:04:52.134Z,924.23
2017-03-10T03:05:11.856Z,924.22
2017-03-10T03:05:31.622Z,924.24
2017-03-10T03:05:51.415Z,924.24
2017-03-10T03:06:11.204Z,924.28
2017-03-10T03:06:30.451Z,924.29
2017-03-10T03:06:50.210Z,924.33
2017-03-10T03:07:09.370Z,924.32
2017-03-10T03:07:29.152Z,924.25
2017-03-10T03:07:48.266Z,924.34
2017-03-10T03:08:08.022Z,924.32
2017-03-10T03:08:27.931Z,924.28
2017-03-10T03:08:47.708Z,924.32
2017-03-10T03:09:07.464Z,924.28
2017-03-10T03:09:26.621Z,924.3
2017-03-10T03:09:46.374Z,924.27
2017-03-10T03:10:06.168Z,924.26
2017-03-10T03:10:26.131Z,924.3
2017-03-10T03:10:45.354Z,924.31
2017-03-10T03:11:05.134Z,924.33
2017-03-10T03:11:24.898Z,924.29
2017-03-10T03:11:44.098Z,924.27
2017-03-10T03:12:03.850Z,924.27
2017-03-10T03:12:23.658Z,924.25
2017-03-10T03:12:42.891Z,924.26
2017-03-10T03:13:02.755Z,924.24
2017-03-10T03:13:22.511Z,924.22
2017-03-10T03:13:41.677Z,924.24
2017-03-10T03:14:01.460Z,924.2
2017-03-10T03:14:20.694Z,924.22
2017-03-10T03:14:40.641Z,924.19
2017-03-10T03:15:00.358Z,924.17
2017-03-10T03:15:19.521Z,924.18
2017-03-10T03:15:38.660Z,924.16
2017-03-10T03:15:58.412Z,924.19
2017-03-10T03:16:18.220Z,924.2
2017-03-10T03:16:38.031Z,924.22
2017-03-10T03:16:57.756Z,924.22
2017-03-10T03:17:16.897Z,924.21
2017-03-10T03:17:34.875Z,924.21
2017-03-10T03:17:54.594Z,924.18
2017-03-10T03:18:14.376Z,924.19
2017-03-10T03:18:34.328Z,924.21
2017-03-10T03:18:54.102Z,924.23
2017-03-10T03:19:13.858Z,924.18
2017-03-10T03:19:33.623Z,924.23
2017-03-10T03:19:53.399Z,924.22
2017-03-10T03:20:12.660Z,924.22
2017-03-10T03:20:32.571Z,924.25
2017-03-10T03:20:52.332Z,924.27
2017-03-10T03:21:12.097Z,924.23
2017-03-10T03:21:31.844Z,924.25
2017-03-10T03:21:51.588Z,924.29
2017-03-10T03:22:11.413Z,924.29
2017-03-10T03:22:31.326Z,924.25
2017-03-10T03:22:51.088Z,924.29
2017-03-10T03:23:10.848Z,924.3
2017-03-10T03:23:29.978Z,924.29
2017-03-10T03:23:49.807Z,924.31
2017-03-10T03:24:09.601Z,924.3
2017-03-10T03:24:29.185Z,924.31
2017-03-10T03:24:48.964Z,924.31
2017-03-10T03:25:08.711Z,924.3
2017-03-10T03:25:28.465Z,924.31
2017-03-10T03:25:48.244Z,924.34
2017-03-10T03:26:08.024Z,924.3
2017-03-10T03:26:28.004Z,924.34
2017-03-10T03:26:47.173Z,924.32
2017-03-10T03:27:06.914Z,924.31
2017-03-10T03:27:26.699Z,924.32
2017-03-10T03:27:46.476Z,924.29
2017-03-10T03:28:06.236Z,924.3
2017-03-10T03:28:25.670Z,924.31
2017-03-10T03:28:45.548Z,924.3
2017-03-10T03:29:05.303Z,924.3
2017-03-10T03:29:24.460Z,924.26
2017-03-10T03:29:44.254Z,924.27
2017-03-10T03:30:04.019Z,924.27
2017-03-10T03:30:24.106Z,924.3
2017-03-10T03:30:43.457Z,924.27
2017-03-10T03:31:02.590Z,924.28
2017-03-10T03:31:22.386Z,924.26
2017-03-10T03:31:41.540Z,924.25
2017-03-10T03:32:01.292Z,924.24
2017-03-10T03:32:20.485Z,924.2
2017-03-10T03:32:39.739Z,924.19
2017-03-10T03:32:59.527Z,924.17
2017-03-10T03:33:19.290Z,924.16
2017-03-10T03:33:39.039Z,924.16
2017-03-10T03:33:58.793Z,924.19
2017-03-10T03:34:18.856Z,924.16
2017-03-10T03:34:38.278Z,924.16
2017-03-10T03:34:58.037Z,924.15
2017-03-10T03:35:17.813Z,924.17
2017-03-10T03:35:36.976Z,924.2
2017-03-10T03:35:56.730Z,924.18
2017-03-10T03:36:16.769Z,924.18
2017-03-10T03:36:37.224Z,924.19
2017-03-10T03:36:56.978Z,924.22
2017-03-10T03:37:16.166Z,924.25
2017-03-10T03:37:35.342Z,924.24
2017-03-10T03:37:55.201Z,924.26
2017-03-10T03:38:15.236Z,924.24
2017-03-10T03:38:35.542Z,924.22
2017-03-10T03:38:55.306Z,924.26
2017-03-10T03:39:15.196Z,924.25
2017-03-10T03:39:35.062Z,924.25
2017-03-10T03:39:54.802Z,924.23
2017-03-10T03:40:14.892Z,924.24
2017-03-10T03:40:35.331Z,924.21
2017-03-10T03:40:55.106Z,924.2
2017-03-10T03:41:14.886Z,924.22
2017-03-10T03:41:34.670Z,924.25
2017-03-10T03:41:54.438Z,924.17
2017-03-10T03:42:13.892Z,924.22
2017-03-10T03:42:33.621Z,924.22
2017-03-10T03:42:52.947Z,924.24
2017-03-10T03:43:12.756Z,924.2
2017-03-10T03:43:32.541Z,924.18
2017-03-10T03:43:52.285Z,924.2
2017-03-10T03:44:12.191Z,924.2
2017-03-10T03:44:32.515Z,924.21
2017-03-10T03:44:52.279Z,924.18
2017-03-10T03:45:12.033Z,924.21
2017-03-10T03:45:31.758Z,924.18
2017-03-10T03:45:51.487Z,924.19
2017-03-10T03:46:11.491Z,924.22
2017-03-10T03:46:31.976Z,924.18
2017-03-10T03:46:51.136Z,924.2
2017-03-10T03:47:10.898Z,924.17
2017-03-10T03:47:30.057Z,924.19
2017-03-10T03:47:49.790Z,924.19
2017-03-10T03:48:09.645Z,924.18
2017-03-10T03:48:30.072Z,924.2
2017-03-10T03:48:49.920Z,924.19
2017-03-10T03:49:09.671Z,924.21
2017-03-10T03:49:29.423Z,924.19
2017-03-10T03:49:47.978Z,924.22
2017-03-10T03:50:07.792Z,924.18
2017-03-10T03:50:28.161Z,924.19
2017-03-10T03:50:48.034Z,924.17
2017-03-10T03:51:07.176Z,924.2
2017-03-10T03:51:26.963Z,924.19
2017-03-10T03:51:46.730Z,924.17
2017-03-10T03:52:06.465Z,924.2
2017-03-10T03:52:26.748Z,924.14
2017-03-10T03:52:46.175Z,924.2
2017-03-10T03:53:06.065Z,924.19
2017-03-10T03:53:25.860Z,924.16
2017-03-10T03:53:45.641Z,924.17
2017-03-10T03:54:05.427Z,924.2
2017-03-10T03:54:25.804Z,924.1
2017-03-10T03:54:45.217Z,924.16
2017-03-10T03:55:05.011Z,924.13
2017-03-10T03:55:24.769Z,924.14
2017-03-10T03:55:44.536Z,924.11
2017-03-10T03:56:04.327Z,924.09
2017-03-10T03:56:24.061Z,924.16
2017-03-10T03:56:44.158Z,924.08
2017-03-10T03:57:03.908Z,924.05
2017-03-10T03:57:23.681Z,924.08
2017-03-10T03:57:43.429Z,924.16
2017-03-10T03:58:03.514Z,924.08
2017-03-10T03:58:23.246Z,924.07
2017-03-10T03:58:42.177Z,924.1
2017-03-10T03:59:01.962Z,924.08
2017-03-10T03:59:21.867Z,924.08
2017-03-10T03:59:41.659Z,924.12
2017-03-10T04:00:01.425Z,924.08
2017-03-10T04:00:21.668Z,924.09
2017-03-10T04:00:41.862Z,924.09
2017-03-10T04:01:01.602Z,924.11
2017-03-10T04:01:21.368Z,924.1
2017-03-10T04:01:41.114Z,924.06
2017-03-10T04:02:00.856Z,924.07
2017-03-10T04:02:20.526Z,924.05
2017-03-10T04:02:40.680Z,924.05
2017-03-10T04:03:00.462Z,924.06
2017-03-10T04:03:20.188Z,924.05
2017-03-10T04:03:39.935Z,924.07
2017-03-10T04:03:59.706Z,924.07
2017-03-10T04:04:19.294Z,924.07
2017-03-10T04:04:39.575Z,924.07
2017-03-10T04:04:59.364Z,924.04
2017-03-10T04:05:33.017Z,924.05
2017-03-10T04:05:52.780Z,924.04
2017-03-10T04:06:12.782Z,924.03
2017-03-10T04:06:33.178Z,924.03
2017-03-10T04:06:52.949Z,924.05
2017-03-10T04:07:12.707Z,924.01
2017-03-10T04:07:32.503Z,924.01
2017-03-10T04:07:52.259Z,923.97